createdAt,value
2017-10-20T00:00:47.791Z,10.00
2017-10-20T00:03:20.435Z,10.00
2017-10-20T00:05:52.962Z,10.00
2017-10-20T00:08:26.514Z,9.90
2017-10-20T00:10:59.490Z,9.90
2017-10-20T00:13:32.992Z,9.90
2017-10-20T00:16:06.702Z,9.90
2017-10-20T00:18:39.822Z,9.80
2017-10-20T00:21:12.311Z,9.80
2017-10-20T00:23:45.728Z,9.80
2017-10-20T00:26:18.812Z,9.80
2017-10-20T00:28:52.503Z,9.80
2017-10-20T00:31:25.219Z,9.70
2017-10-20T00:33:58.424Z,9.70
2017-10-20T00:36:32.015Z,9.70
2017-10-20T00:39:04.617Z,9.70
2017-10-20T00:41:37.249Z,9.70
2017-10-20T00:44:09.995Z,9.70
2017-10-20T00:46:43.431Z,9.70
2017-10-20T00:49:16.343Z,9.70
2017-10-20T00:51:49.969Z,9.70
2017-10-20T00:54:22.650Z,9.70
2017-10-20T00:56:55.912Z,9.70
2017-10-20T00:59:28.362Z,9.70
2017-10-20T01:02:00.784Z,9.70
2017-10-20T01:04:34.219Z,9.70
2017-10-20T01:07:07.946Z,9.70
2017-10-20T01:09:40.872Z,9.70
2017-10-20T01:12:13.738Z,9.70
2017-10-20T01:14:46.337Z,9.70
2017-10-20T01:17:18.986Z,9.70
2017-10-20T01:19:51.780Z,9.70
2017-10-20T01:22:24.456Z,9.70
2017-10-20T01:24:57.788Z,9.70
2017-10-20T01:27:30.222Z,9.70
2017-10-20T01:30:02.836Z,9.70
2017-10-20T01:32:36.328Z,9.70
2017-10-20T01:35:08.943Z,9.70
2017-10-20T01:37:42.589Z,9.80
2017-10-20T01:40:15.339Z,9.70
2017-10-20T01:42:47.920Z,9.80
2017-10-20T01:45:20.613Z,9.80
2017-10-20T01:47:54.140Z,9.70
2017-10-20T01:50:26.969Z,9.70
2017-10-20T01:52:59.548Z,9.70
2017-10-20T01:55:32.281Z,9.70
2017-10-20T01:58:04.822Z,9.60
2017-10-20T02:00:37.686Z,9.60
2017-10-20T02:03:10.454Z,9.60
2017-10-20T02:05:43.429Z,9.60
2017-10-20T02:08:16.066Z,9.50
2017-10-20T02:10:49.412Z,9.50
2017-10-20T02:13:22.195Z,9.50
2017-10-20T02:15:54.716Z,9.40
2017-10-20T02:18:27.422Z,9.40
2017-10-20T02:21:00.098Z,9.40
2017-10-20T02:23:32.739Z,9.30
2017-10-20T02:26:05.498Z,9.30
2017-10-20T02:28:39.114Z,9.20
2017-10-20T02:31:12.190Z,9.20
2017-10-20T02:33:44.785Z,9.20
2017-10-20T02:36:17.433Z,9.10
2017-10-20T02:38:50.229Z,9.10
2017-10-20T02:41:22.709Z,9.10
2017-10-20T02:43:55.349Z,9.10
2017-10-20T02:46:28.124Z,9.00
2017-10-20T02:49:00.957Z,9.00
2017-10-20T02:51:33.919Z,9.00
2017-10-20T02:54:06.728Z,9.00
2017-10-20T02:56:39.215Z,9.00
2017-10-20T02:59:11.884Z,8.90
2017-10-20T03:01:45.091Z,8.90
2017-10-20T03:04:18.113Z,8.80
2017-10-20T03:06:51.000Z,8.80
2017-10-20T03:09:24.379Z,8.80
2017-10-20T03:11:57.344Z,8.80
2017-10-20T03:14:30.719Z,8.80
2017-10-20T03:17:03.251Z,8.70
2017-10-20T03:19:36.251Z,8.70
2017-10-20T03:22:09.300Z,8.70
2017-10-20T03:24:41.739Z,8.70
2017-10-20T03:27:15.211Z,8.60
2017-10-20T03:29:48.126Z,8.60
2017-10-20T03:32:20.751Z,8.60
2017-10-20T03:34:53.272Z,8.60
2017-10-20T03:37:26.088Z,8.60
2017-10-20T03:39:58.972Z,8.60
2017-10-20T03:42:31.785Z,8.60
2017-10-20T03:45:04.442Z,8.60
2017-10-20T03:47:37.031Z,8.60
2017-10-20T03:50:09.802Z,8.70
2017-10-20T03:52:42.389Z,8.60
2017-10-20T03:55:15.015Z,8.70
2017-10-20T03:57:47.510Z,8.70
2017-10-20T04:00:20.312Z,8.70
2017-10-20T04:02:52.939Z,8.70
2017-10-20T04:05:26.240Z,8.70
2017-10-20T04:07:58.977Z,8.70
2017-10-20T04:10:31.626Z,8.70
2017-10-20T04:13:04.901Z,8.70
2017-10-20T04:15:37.453Z,8.70
2017-10-20T04:18:11.160Z,8.70
2017-10-20T04:20:44.622Z,8.70
2017-10-20T04:23:17.705Z,8.70
2017-10-20T04:25:50.578Z,8.70
2017-10-20T04:28:24.389Z,8.70
2017-10-20T04:30:57.264Z,8.70
2017-10-20T04:33:30.481Z,8.70
2017-10-20T04:36:03.544Z,8.60
2017-10-20T04:38:36.403Z,8.70
2017-10-20T04:41:09.065Z,8.70
2017-10-20T04:43:41.602Z,8.70
2017-10-20T04:46:14.263Z,8.70
2017-10-20T04:48:46.966Z,8.60
2017-10-20T04:51:19.760Z,8.60
2017-10-20T04:53:52.314Z,8.70
2017-10-20T04:56:24.910Z,8.70
2017-10-20T04:58:57.561Z,8.70
2017-10-20T05:01:30.368Z,8.70
2017-10-20T05:04:03.554Z,8.70
2017-10-20T05:06:36.468Z,8.70
2017-10-20T05:09:09.083Z,8.70
2017-10-20T05:11:42.398Z,8.70
2017-10-20T05:14:15.679Z,8.70
2017-10-20T05:16:48.205Z,8.70
2017-10-20T05:19:20.930Z,8.70
2017-10-20T05:21:53.465Z,8.70
2017-10-20T05:24:25.942Z,8.70
2017-10-20T05:26:58.661Z,8.70
2017-10-20T05:29:31.318Z,8.70
2017-10-20T05:32:03.995Z,8.70
2017-10-20T05:34:37.385Z,8.70
2017-10-20T05:37:10.101Z,8.70
2017-10-20T05:39:42.626Z,8.80
2017-10-20T05:42:15.859Z,8.80
2017-10-20T05:44:48.853Z,8.80
2017-10-20T05:47:22.161Z,8.80
2017-10-20T05:49:54.873Z,8.80
2017-10-20T05:52:27.693Z,8.80
2017-10-20T05:55:00.278Z,8.80
2017-10-20T05:57:33.197Z,8.80
2017-10-20T06:00:06.552Z,8.90
2017-10-20T06:02:40.350Z,8.90
2017-10-20T06:05:13.364Z,8.90
2017-10-20T06:07:46.057Z,8.90
2017-10-20T06:10:19.113Z,9.00
2017-10-20T06:12:53.401Z,9.00
2017-10-20T06:15:26.063Z,9.00
2017-10-20T06:17:58.792Z,9.10
2017-10-20T06:20:31.526Z,9.10
2017-10-20T06:23:04.020Z,9.20
2017-10-20T06:25:37.080Z,9.20
2017-10-20T06:28:09.532Z,9.30
2017-10-20T06:30:42.156Z,9.30
2017-10-20T06:33:14.976Z,9.40
2017-10-20T06:35:48.288Z,9.70
2017-10-20T06:38:21.365Z,9.60
2017-10-20T06:40:53.815Z,9.70
2017-10-20T06:43:26.257Z,9.80
2017-10-20T06:45:59.402Z,9.90
2017-10-20T06:48:32.742Z,10.10
2017-10-20T06:51:05.641Z,10.20
2017-10-20T06:53:38.184Z,10.30
2017-10-20T06:56:10.661Z,10.40
2017-10-20T06:58:43.597Z,10.60
2017-10-20T07:01:17.120Z,10.90
2017-10-20T07:03:50.132Z,10.80
2017-10-20T07:06:22.781Z,11.00
2017-10-20T07:08:55.717Z,11.20
2017-10-20T07:11:28.315Z,11.40
2017-10-20T07:14:01.082Z,11.60
2017-10-20T07:16:34.080Z,11.90
2017-10-20T07:19:17.765Z,12.10
2017-10-20T07:21:50.572Z,12.30
2017-10-20T07:24:23.532Z,12.60
2017-10-20T07:26:56.291Z,12.80
2017-10-20T07:29:28.976Z,13.00
2017-10-20T07:32:02.427Z,13.50
2017-10-20T07:34:36.231Z,13.70
2017-10-20T07:37:09.189Z,13.70
2017-10-20T07:39:41.651Z,13.90
2017-10-20T07:42:14.161Z,14.20
2017-10-20T07:44:46.818Z,14.40
2017-10-20T07:47:19.354Z,14.70
2017-10-20T07:49:52.000Z,14.90
2017-10-20T07:52:24.438Z,15.20
2017-10-20T07:54:57.735Z,15.40
2017-10-20T07:57:30.302Z,15.70
2017-10-20T08:00:03.203Z,15.90
2017-10-20T08:02:36.990Z,16.30
2017-10-20T08:05:09.832Z,16.30
2017-10-20T08:07:42.259Z,16.50
2017-10-20T08:10:15.788Z,16.80
2017-10-20T08:12:48.440Z,16.90
2017-10-20T08:15:21.146Z,17.20
2017-10-20T08:17:53.869Z,17.40
2017-10-20T08:20:26.581Z,17.60
2017-10-20T08:23:00.034Z,18.10
2017-10-20T08:25:33.025Z,18.10
2017-10-20T08:28:05.719Z,18.30
2017-10-20T08:30:38.324Z,18.40
2017-10-20T08:33:10.741Z,18.60
2017-10-20T08:35:43.497Z,18.80
2017-10-20T08:38:16.289Z,19.00
2017-10-20T08:40:49.221Z,19.20
2017-10-20T08:43:21.850Z,19.40
2017-10-20T08:45:54.399Z,19.50
2017-10-20T08:48:27.345Z,19.70
2017-10-20T08:51:00.016Z,19.90
2017-10-20T08:53:32.441Z,20.00
2017-10-20T08:56:05.895Z,20.20
2017-10-20T08:58:38.437Z,20.40
2017-10-20T09:01:10.960Z,20.50
2017-10-20T09:03:43.646Z,20.80
2017-10-20T09:06:17.769Z,21.40
2017-10-20T09:08:50.499Z,21.30
2017-10-20T09:11:23.122Z,21.70
2017-10-20T09:13:55.557Z,22.00
2017-10-20T09:16:27.965Z,22.40
2017-10-20T09:19:00.683Z,22.70
2017-10-20T09:21:33.560Z,23.00
2017-10-20T09:24:06.309Z,23.30
2017-10-20T09:26:39.758Z,23.70
2017-10-20T09:29:12.546Z,23.70
2017-10-20T09:31:45.430Z,24.00
2017-10-20T09:34:17.789Z,24.30
2017-10-20T09:36:51.360Z,24.70
2017-10-20T09:39:25.089Z,24.90
2017-10-20T09:41:58.787Z,25.10
2017-10-20T09:44:31.768Z,25.10
2017-10-20T09:47:04.296Z,25.20
2017-10-20T09:49:36.894Z,25.40
2017-10-20T09:52:09.467Z,25.50
2017-10-20T09:54:42.272Z,25.70
2017-10-20T09:57:14.975Z,25.80
2017-10-20T09:59:48.593Z,25.90
2017-10-20T10:02:22.053Z,25.90
2017-10-20T10:04:54.944Z,25.90
2017-10-20T10:07:27.522Z,25.80
2017-10-20T10:10:00.030Z,25.80
2017-10-20T10:12:32.660Z,25.70
2017-10-20T10:15:05.174Z,25.60
2017-10-20T10:17:38.427Z,25.50
2017-10-20T10:20:10.960Z,25.50
2017-10-20T10:22:43.517Z,25.30
2017-10-20T10:25:15.970Z,25.10
2017-10-20T10:27:49.267Z,24.90
2017-10-20T10:30:22.533Z,24.70
2017-10-20T10:32:56.654Z,24.30
2017-10-20T10:35:30.622Z,24.10
2017-10-20T10:38:03.679Z,24.10
2017-10-20T10:40:36.133Z,23.90
2017-10-20T10:43:08.857Z,23.70
2017-10-20T10:45:42.364Z,23.30
2017-10-20T10:48:15.455Z,23.30
2017-10-20T10:50:48.047Z,23.20
2017-10-20T10:53:21.338Z,22.90
2017-10-20T10:55:54.223Z,22.90
2017-10-20T10:58:26.941Z,22.70
2017-10-20T11:01:00.269Z,22.50
2017-10-20T11:03:33.335Z,22.50
2017-10-20T11:06:24.565Z,22.40
2017-10-20T11:09:16.156Z,22.30
2017-10-20T11:12:07.539Z,22.20
2017-10-20T11:14:40.765Z,22.10
2017-10-20T11:17:13.230Z,22.00
2017-10-20T11:19:45.856Z,22.00
2017-10-20T11:22:18.483Z,21.90
2017-10-20T11:24:51.171Z,21.90
2017-10-20T11:27:23.793Z,21.80
2017-10-20T11:29:56.846Z,21.80
2017-10-20T11:32:29.199Z,21.80
2017-10-20T11:35:02.666Z,21.70
2017-10-20T11:37:36.711Z,21.60
2017-10-20T11:40:09.983Z,21.60
2017-10-20T11:42:43.097Z,21.60
2017-10-20T11:45:15.622Z,21.50
2017-10-20T11:47:49.079Z,21.50
2017-10-20T11:50:22.075Z,21.50
2017-10-20T11:52:54.653Z,21.50
2017-10-20T11:55:28.210Z,21.40
2017-10-20T11:58:01.290Z,21.40
2017-10-20T12:00:33.928Z,21.40
2017-10-20T12:03:06.478Z,21.40
2017-10-20T12:05:39.776Z,21.30
2017-10-20T12:08:12.684Z,21.30
2017-10-20T12:10:45.471Z,21.30
2017-10-20T12:13:18.008Z,21.30
2017-10-20T12:15:50.769Z,21.20
2017-10-20T12:18:24.243Z,21.20
2017-10-20T12:20:57.360Z,21.20
2017-10-20T12:23:30.387Z,21.10
2017-10-20T12:26:02.963Z,21.10
2017-10-20T12:28:35.541Z,21.10
2017-10-20T12:31:08.916Z,21.10
2017-10-20T12:33:41.916Z,21.00
2017-10-20T12:36:15.080Z,21.00
2017-10-20T12:38:47.926Z,21.00
2017-10-20T12:41:20.495Z,21.00
2017-10-20T12:43:53.231Z,21.00
2017-10-20T12:46:26.459Z,20.90
2017-10-20T12:48:59.040Z,20.90
2017-10-20T12:51:31.769Z,20.90
2017-10-20T12:54:04.190Z,20.90
2017-10-20T12:56:37.052Z,20.80
2017-10-20T12:59:09.686Z,20.80
2017-10-20T13:01:42.889Z,20.70
2017-10-20T13:04:15.906Z,20.70
2017-10-20T13:06:48.462Z,20.60
2017-10-20T13:09:21.762Z,20.60
2017-10-20T13:11:54.782Z,20.50
2017-10-20T13:14:27.522Z,20.50
2017-10-20T13:17:00.210Z,20.50
2017-10-20T13:19:33.723Z,20.50
2017-10-20T13:22:06.653Z,20.40
2017-10-20T13:24:39.107Z,20.40
2017-10-20T13:27:12.542Z,20.30
2017-10-20T13:29:45.424Z,20.30
2017-10-20T13:32:18.175Z,20.30
2017-10-20T13:34:50.822Z,20.30
2017-10-20T13:37:25.031Z,20.30
2017-10-20T13:39:58.598Z,20.20
2017-10-20T13:42:31.425Z,20.20
2017-10-20T13:45:04.035Z,20.30
2017-10-20T13:47:36.999Z,20.30
2017-10-20T13:50:10.356Z,20.20
2017-10-20T13:52:43.654Z,20.20
2017-10-20T13:55:17.527Z,20.20
2017-10-20T13:57:51.270Z,20.20
2017-10-20T14:00:24.307Z,20.20
2017-10-20T14:02:56.969Z,20.20
2017-10-20T14:05:29.761Z,20.20
2017-10-20T14:08:03.428Z,20.20
2017-10-20T14:10:36.642Z,20.10
2017-10-20T14:13:09.439Z,20.10
2017-10-20T14:15:42.230Z,20.10
2017-10-20T14:18:15.507Z,20.10
2017-10-20T14:20:48.600Z,20.10
2017-10-20T14:23:21.393Z,20.10
2017-10-20T14:25:53.894Z,20.10
2017-10-20T14:28:26.622Z,20.10
2017-10-20T14:30:59.414Z,20.10
2017-10-20T14:33:32.062Z,20.10
2017-10-20T14:36:04.870Z,20.10
2017-10-20T14:38:37.651Z,20.00
2017-10-20T14:41:10.566Z,20.00
2017-10-20T14:43:42.927Z,20.00
2017-10-20T14:46:16.890Z,20.00
2017-10-20T14:48:49.658Z,20.00
2017-10-20T14:51:22.049Z,20.00
2017-10-20T14:53:55.431Z,19.90
2017-10-20T14:56:28.197Z,19.90
2017-10-20T14:59:01.015Z,19.90
2017-10-20T15:01:33.416Z,19.90
2017-10-20T15:04:06.766Z,19.90
2017-10-20T15:06:40.118Z,19.90
2017-10-20T15:09:13.599Z,19.90
2017-10-20T15:11:47.149Z,19.90
2017-10-20T15:14:19.920Z,19.90
2017-10-20T15:16:52.349Z,19.90
2017-10-20T15:19:24.847Z,19.90
2017-10-20T15:21:58.590Z,19.80
2017-10-20T15:24:31.698Z,19.80
2017-10-20T15:27:04.330Z,19.80
2017-10-20T15:29:37.889Z,19.70
2017-10-20T15:32:11.644Z,19.60
2017-10-20T15:34:45.543Z,19.50
2017-10-20T15:37:19.257Z,19.50
2017-10-20T15:39:52.377Z,19.40
2017-10-20T15:42:25.882Z,19.30
2017-10-20T15:44:58.766Z,19.30
2017-10-20T15:47:31.516Z,19.30
2017-10-20T15:50:04.197Z,19.20
2017-10-20T15:52:36.582Z,19.10
2017-10-20T15:55:10.087Z,18.90
2017-10-20T15:57:43.092Z,18.90
2017-10-20T16:00:16.585Z,18.80
2017-10-20T16:02:49.258Z,18.70
2017-10-20T16:05:21.926Z,18.70
2017-10-20T16:07:54.729Z,18.60
2017-10-20T16:10:28.217Z,18.50
2017-10-20T16:13:01.201Z,18.40
2017-10-20T16:15:33.749Z,18.40
2017-10-20T16:18:06.122Z,18.30
2017-10-20T16:20:38.805Z,18.30
2017-10-20T16:23:11.560Z,18.20
2017-10-20T16:25:44.871Z,18.10
2017-10-20T16:28:17.989Z,18.00
2017-10-20T16:30:51.296Z,18.00
2017-10-20T16:33:25.119Z,17.80
2017-10-20T16:35:58.013Z,17.70
2017-10-20T16:38:30.692Z,17.70
2017-10-20T16:41:03.267Z,17.60
2017-10-20T16:43:36.594Z,17.40
2017-10-20T16:46:09.461Z,17.40
2017-10-20T16:48:41.937Z,17.40
2017-10-20T16:51:14.531Z,17.30
2017-10-20T16:53:47.863Z,17.20
2017-10-20T16:56:20.581Z,17.20
2017-10-20T16:58:53.212Z,17.20
2017-10-20T17:01:25.872Z,17.10
2017-10-20T17:03:59.048Z,17.10
2017-10-20T17:06:31.544Z,17.10
2017-10-20T17:09:04.284Z,17.10
2017-10-20T17:11:36.935Z,17.10
2017-10-20T17:14:10.109Z,17.00
2017-10-20T17:16:42.643Z,17.00
2017-10-20T17:19:15.254Z,17.00
2017-10-20T17:21:48.311Z,17.00
2017-10-20T17:24:20.834Z,17.00
2017-10-20T17:26:54.379Z,17.00
2017-10-20T17:29:27.551Z,17.00
2017-10-20T17:32:00.542Z,17.00
2017-10-20T17:34:34.290Z,17.00
2017-10-20T17:37:07.522Z,17.00
2017-10-20T17:39:40.496Z,17.10
2017-10-20T17:42:13.142Z,17.10
2017-10-20T17:44:46.063Z,17.00
2017-10-20T17:47:19.155Z,17.10
2017-10-20T17:49:53.518Z,17.10
2017-10-20T17:52:27.445Z,17.10
2017-10-20T17:55:01.286Z,17.10
2017-10-20T17:57:34.800Z,17.20
2017-10-20T18:00:09.875Z,17.20
2017-10-20T18:02:43.385Z,17.20
2017-10-20T18:05:17.255Z,17.20
2017-10-20T18:07:50.705Z,17.30
2017-10-20T18:10:25.321Z,17.30
2017-10-20T18:13:01.304Z,17.30
2017-10-20T18:15:36.171Z,17.30
2017-10-20T18:18:10.920Z,17.30
2017-10-20T18:20:45.365Z,17.30
2017-10-20T18:23:20.138Z,17.30
2017-10-20T18:25:54.832Z,17.40
2017-10-20T18:28:29.454Z,17.30
2017-10-20T18:31:03.737Z,17.30
2017-10-20T18:33:39.647Z,17.30
2017-10-20T18:36:14.424Z,17.30
2017-10-20T18:38:48.522Z,17.30
2017-10-20T18:41:24.139Z,17.30
2017-10-20T18:44:00.458Z,17.30
2017-10-20T18:46:35.403Z,17.30
2017-10-20T18:49:10.317Z,17.30
2017-10-20T18:51:46.482Z,17.20
2017-10-20T18:54:21.667Z,17.10
2017-10-20T18:56:56.962Z,17.00
2017-10-20T18:59:31.955Z,17.00
2017-10-20T19:02:07.437Z,16.90
2017-10-20T19:04:42.069Z,16.90
2017-10-20T19:07:16.599Z,16.80
2017-10-20T19:09:50.729Z,16.80
2017-10-20T19:12:25.239Z,16.70
2017-10-20T19:15:00.461Z,16.70
2017-10-20T19:17:36.569Z,16.50
2017-10-20T19:20:10.748Z,16.50
2017-10-20T19:22:45.215Z,16.50
2017-10-20T19:25:20.853Z,16.30
2017-10-20T19:27:56.951Z,16.30
2017-10-20T19:30:32.117Z,16.20
2017-10-20T19:33:07.726Z,16.10
2017-10-20T19:35:42.263Z,16.00
2017-10-20T19:38:17.340Z,15.90
2017-10-20T19:40:53.180Z,15.90
2017-10-20T19:43:28.000Z,15.80
2017-10-20T19:46:02.831Z,15.80
2017-10-20T19:48:37.015Z,15.80
2017-10-20T19:51:12.363Z,15.70
2017-10-20T19:53:47.974Z,15.60
2017-10-20T19:56:23.815Z,15.60
2017-10-20T19:58:59.369Z,15.50
2017-10-20T20:01:34.953Z,15.50
2017-10-20T20:04:09.528Z,15.50
2017-10-20T20:06:45.054Z,15.40
2017-10-20T20:09:20.012Z,15.40
2017-10-20T20:11:54.908Z,15.40
2017-10-20T20:14:30.532Z,15.20
2017-10-20T20:17:05.838Z,15.20
2017-10-20T20:19:40.306Z,15.20
2017-10-20T20:22:15.789Z,15.10
2017-10-20T20:24:51.209Z,15.10
2017-10-20T20:27:26.200Z,15.00
2017-10-20T20:30:00.796Z,15.00
2017-10-20T20:32:41.403Z,14.90
2017-10-20T20:35:17.167Z,14.90
2017-10-20T20:37:52.114Z,14.80
2017-10-20T20:40:27.028Z,14.80
2017-10-20T20:43:02.112Z,14.80
2017-10-20T20:45:36.539Z,14.70
2017-10-20T20:48:10.902Z,14.60
2017-10-20T20:50:45.341Z,14.60
2017-10-20T20:53:20.079Z,14.60
2017-10-20T20:55:56.047Z,14.50
2017-10-20T20:58:31.260Z,14.40
2017-10-20T21:01:06.374Z,14.40
2017-10-20T21:03:40.779Z,14.30
2017-10-20T21:06:14.690Z,14.30
2017-10-20T21:08:49.331Z,14.30
2017-10-20T21:11:23.646Z,14.20
2017-10-20T21:13:58.958Z,14.10
2017-10-20T21:16:32.020Z,14.10
2017-10-20T21:19:06.413Z,14.10
2017-10-20T21:21:39.201Z,14.10
2017-10-20T21:24:11.757Z,14.10
2017-10-20T21:26:44.655Z,14.00
2017-10-20T21:29:17.508Z,14.00
2017-10-20T21:31:50.999Z,14.00
2017-10-20T21:34:24.826Z,14.00
2017-10-20T21:36:57.602Z,14.00
2017-10-20T21:39:30.594Z,14.00
2017-10-20T21:42:03.765Z,14.00
2017-10-20T21:44:36.880Z,14.10
2017-10-20T21:47:09.438Z,14.10
2017-10-20T21:49:42.175Z,14.00
2017-10-20T21:52:14.733Z,14.00
2017-10-20T21:54:47.346Z,14.00
2017-10-20T21:57:21.230Z,14.00
2017-10-20T21:59:54.516Z,14.00
2017-10-20T22:02:27.809Z,14.00
2017-10-20T22:05:00.945Z,14.00
2017-10-20T22:07:33.924Z,14.00
2017-10-20T22:10:06.455Z,14.00
2017-10-20T22:12:40.081Z,14.00
2017-10-20T22:15:13.239Z,14.00
2017-10-20T22:17:46.859Z,14.00
2017-10-20T22:20:19.885Z,14.00
2017-10-20T22:22:53.092Z,14.00
2017-10-20T22:25:25.907Z,13.90
2017-10-20T22:27:58.459Z,14.00
2017-10-20T22:30:30.965Z,14.00
2017-10-20T22:33:03.740Z,13.90
2017-10-20T22:35:36.434Z,13.90
2017-10-20T22:38:10.155Z,14.00
2017-10-20T22:40:43.571Z,13.90
2017-10-20T22:43:16.958Z,14.00
2017-10-20T22:45:49.924Z,14.00
2017-10-20T22:48:23.297Z,14.00
2017-10-20T22:50:56.825Z,14.00
2017-10-20T22:53:29.855Z,14.00
2017-10-20T22:56:02.629Z,14.10
2017-10-20T22:58:35.343Z,14.10
2017-10-20T23:01:08.594Z,14.10
2017-10-20T23:03:42.253Z,14.10
2017-10-20T23:06:15.127Z,14.10
2017-10-20T23:08:47.592Z,14.10
2017-10-20T23:11:20.002Z,14.10
2017-10-20T23:13:52.466Z,14.10
2017-10-20T23:16:25.792Z,14.20
2017-10-20T23:18:59.389Z,14.20
2017-10-20T23:21:32.155Z,14.20
2017-10-20T23:24:04.618Z,14.20
2017-10-20T23:26:37.198Z,14.30
2017-10-20T23:29:09.917Z,14.30
2017-10-20T23:31:43.093Z,14.30
2017-10-20T23:34:15.704Z,14.30
2017-10-20T23:36:49.100Z,14.30
2017-10-20T23:39:21.681Z,14.40
2017-10-20T23:41:55.044Z,14.40
2017-10-20T23:44:28.071Z,14.40
2017-10-20T23:47:00.900Z,14.50
2017-10-20T23:49:33.643Z,14.50
2017-10-20T23:52:06.405Z,14.50
2017-10-20T23:54:39.238Z,14.50
2017-10-20T23:57:12.282Z,14.50
2017-10-20T23:59:45.608Z,14.50
